Time;durP1;ratioP1;P1;durP2;ratioP2;P2;SDS_P1;SDS_P2;PMS_P1;PMS_P2;Temp;Humidity;BMP_temperature;BMP_pressure;BME280_temperature;BME280_humidity;BME280_pressure;Samples;Min_cycle;Max_cycle;Signal;HPM_P1;HPM_P2
2024/04/02 00:04:48;;;;;;;0.98;0.40;;;;;;;9.72;76.02;99197.44;10445518;28;20037;-63
2024/04/02 00:09:48;;;;;;;0.93;0.40;;;;;;;9.68;76.43;99212.28;10441773;28;20044;-60
2024/04/02 00:14:49;;;;;;;1.17;0.30;;;;;;;9.62;76.10;99213.09;10449081;28;20045;-60
2024/04/02 00:19:49;;;;;;;0.30;0.20;;;;;;;9.62;76.09;99207.72;10448734;28;20490;-61
2024/04/02 00:24:50;;;;;;;0.40;0.20;;;;;;;9.56;76.06;99211.19;10445013;28;20653;-60
2024/04/02 00:29:50;;;;;;;2.20;0.30;;;;;;;9.52;75.93;99210.75;10445866;28;20049;-60
2024/04/02 00:34:51;;;;;;;2.30;0.30;;;;;;;9.46;75.79;99216.09;10443614;28;20051;-58
2024/04/02 00:39:51;;;;;;;1.85;0.50;;;;;;;9.41;75.83;99235.44;10440959;28;20032;-59
2024/04/02 00:44:52;;;;;;;4.43;0.30;;;;;;;9.36;75.45;99234.34;10444170;28;20144;-59
2024/04/02 00:49:54;;;;;;;1.60;0.30;;;;;;;9.29;76.00;99237.00;10444878;28;20048;-58
2024/04/02 00:54:55;;;;;;;3.58;0.40;;;;;;;9.23;75.79;99245.84;10441072;28;20053;-58
2024/04/02 00:59:56;;;;;;;0.50;0.25;;;;;;;9.18;75.85;99261.66;10443971;28;20053;-59
2024/04/02 01:04:56;;;;;;;0.30;0.20;;;;;;;9.15;75.98;99275.47;10442997;28;20052;-59
2024/04/02 01:09:57;;;;;;;0.45;0.40;;;;;;;9.15;75.84;99275.47;10438625;28;20071;-58
2024/04/02 01:14:57;;;;;;;0.95;0.30;;;;;;;9.12;76.03;99284.72;10440309;28;20068;-59
2024/04/02 01:19:58;;;;;;;2.45;0.38;;;;;;;9.11;75.87;99281.22;10439972;28;20048;-60
2024/04/02 01:24:59;;;;;;;0.85;0.30;;;;;;;9.06;76.04;99289.00;10441390;28;20656;-59
2024/04/02 01:29:59;;;;;;;3.13;0.30;;;;;;;9.04;75.87;99284.84;10440609;28;20040;-59
2024/04/02 01:35:00;;;;;;;1.08;0.30;;;;;;;8.99;76.02;99298.84;10442223;28;20048;-58
2024/04/02 01:40:00;;;;;;;1.30;0.20;;;;;;;8.98;75.85;99296.34;10444160;28;20467;-59
2024/04/02 01:45:01;;;;;;;0.70;0.20;;;;;;;8.93;75.81;99297.75;10448810;28;20087;-57
2024/04/02 01:50:02;;;;;;;0.68;0.20;;;;;;;8.93;75.85;99304.97;10440472;28;20068;-56
2024/04/02 01:55:02;;;;;;;2.67;0.38;;;;;;;8.96;75.69;99304.56;10417333;28;20060;-57
2024/04/02 02:00:04;;;;;;;1.20;0.20;;;;;;;8.90;75.83;99311.50;10441620;28;20049;-57
2024/04/02 02:05:05;;;;;;;1.17;0.25;;;;;;;8.91;75.68;99326.59;10435114;28;20076;-56
2024/04/02 02:10:05;;;;;;;0.30;0.20;;;;;;;8.98;75.51;99326.66;10439108;28;20079;-59
2024/04/02 02:15:06;;;;;;;0.88;0.30;;;;;;;9.10;75.50;99343.06;10439032;28;20048;-58
2024/04/02 02:20:07;;;;;;;8.18;1.38;;;;;;;9.25;75.36;99338.47;10441342;28;20060;-58
2024/04/02 02:25:07;;;;;;;1.48;0.63;;;;;;;9.37;75.47;99340.63;10440926;28;20491;-58
2024/04/02 02:30:08;;;;;;;0.65;0.25;;;;;;;9.38;75.19;99339.59;10419515;28;20060;-58
2024/04/02 02:35:09;;;;;;;2.13;0.30;;;;;;;9.44;75.18;99342.34;10433018;28;20043;-57
2024/04/02 02:40:09;;;;;;;1.38;0.20;;;;;;;9.45;75.00;99343.16;10440594;28;21270;-58
2024/04/02 02:45:10;;;;;;;0.80;0.20;;;;;;;9.33;75.11;99351.72;10435945;28;20115;-57
2024/04/02 02:50:10;;;;;;;0.30;0.20;;;;;;;9.34;75.01;99368.69;10440926;28;20408;-59
2024/04/02 02:55:11;;;;;;;1.33;0.25;;;;;;;9.37;75.01;99376.31;10443138;28;20083;-58
2024/04/02 03:00:12;;;;;;;1.42;0.20;;;;;;;9.39;74.97;99384.19;10442720;28;20176;-57
2024/04/02 03:05:13;;;;;;;0.30;0.20;;;;;;;9.50;74.61;99389.03;10438965;28;20048;-58
2024/04/02 03:10:13;;;;;;;1.30;0.10;;;;;;;9.65;74.37;99388.94;10420150;28;20045;-57
2024/04/02 03:15:14;;;;;;;2.97;0.20;;;;;;;9.69;74.21;99395.56;10425377;28;20518;-56
2024/04/02 03:20:14;;;;;;;1.08;0.30;;;;;;;9.80;74.23;99397.75;10445930;28;20057;-56
2024/04/02 03:25:15;;;;;;;0.30;0.20;;;;;;;9.86;74.07;99405.00;10448111;28;20041;-56
2024/04/02 03:30:15;;;;;;;0.68;0.20;;;;;;;9.99;73.66;99406.13;10440768;28;20090;-57
2024/04/02 03:35:16;;;;;;;1.50;0.30;;;;;;;10.04;73.57;99398.31;10446773;28;20337;-55
2024/04/02 03:40:16;;;;;;;3.38;0.20;;;;;;;10.09;73.51;99399.41;10446482;28;20406;-56
2024/04/02 03:45:17;;;;;;;3.90;0.20;;;;;;;10.19;73.47;99396.38;10447024;28;20078;-57
2024/04/02 03:50:17;;;;;;;0.63;0.20;;;;;;;10.25;73.66;99400.13;10444765;28;20049;-56
2024/04/02 03:55:18;;;;;;;0.52;0.20;;;;;;;10.30;73.31;99414.63;10446902;28;20055;-57
2024/04/02 04:00:18;;;;;;;2.13;0.30;;;;;;;10.39;73.41;99409.94;10433453;28;20049;-57
2024/04/02 04:05:19;;;;;;;4.38;0.75;;;;;;;10.45;73.45;99411.84;10447576;28;20860;-55
2024/04/02 04:10:21;;;;;;;3.95;0.77;;;;;;;10.54;73.28;99414.34;10448394;28;20033;-55
2024/04/02 04:15:21;;;;;;;2.83;0.38;;;;;;;10.61;72.89;99416.06;10430406;28;20041;-55
2024/04/02 04:20:26;;;;;;;0.68;0.30;;;;;;;10.60;72.86;99430.50;10431126;28;20048;-56
2024/04/02 04:25:27;;;;;;;0.60;0.30;;;;;;;10.65;73.08;99440.69;10447058;28;20041;-56
2024/04/02 04:30:27;;;;;;;2.55;0.30;;;;;;;10.51;73.04;99437.91;10441197;28;20041;-57
2024/04/02 04:35:32;;;;;;;0.60;0.30;;;;;;;10.35;73.75;99446.28;10445224;28;20048;-57
2024/04/02 04:40:32;;;;;;;2.97;0.30;;;;;;;10.28;73.90;99448.88;10442370;28;20033;-58
2024/04/02 04:45:33;;;;;;;1.33;0.45;;;;;;;10.37;73.83;99443.38;10448135;28;20173;-58
2024/04/02 04:50:34;;;;;;;0.47;0.35;;;;;;;10.40;73.88;99456.44;10442433;28;20041;-58
2024/04/02 04:55:35;;;;;;;2.50;0.98;;;;;;;10.39;73.89;99457.47;10443909;28;20048;-57
2024/04/02 05:00:35;;;;;;;2.20;0.55;;;;;;;10.27;74.21;99468.72;10447905;28;20048;-59
2024/04/02 05:05:36;;;;;;;1.95;0.43;;;;;;;10.30;73.72;99467.53;10441786;28;20041;-59
2024/04/02 05:10:36;;;;;;;3.33;0.50;;;;;;;10.32;73.83;99466.28;10444680;28;20037;-59
2024/04/02 05:15:37;;;;;;;3.22;0.60;;;;;;;10.40;73.85;99476.06;10443057;28;20792;-59
2024/04/02 05:20:38;;;;;;;4.28;0.68;;;;;;;10.45;73.68;99476.31;10439858;28;20048;-60
2024/04/02 05:25:40;;;;;;;2.05;0.50;;;;;;;10.45;74.24;99476.31;10440991;28;20098;-60
2024/04/02 05:30:40;;;;;;;1.33;0.60;;;;;;;10.49;74.15;99477.59;10439085;28;20048;-60
2024/04/02 05:35:41;;;;;;;1.20;0.82;;;;;;;10.51;73.67;99475.53;10442115;28;20091;-60
2024/04/02 05:40:41;;;;;;;1.50;0.40;;;;;;;10.49;73.87;99477.59;10441931;28;20037;-60
2024/04/02 05:45:42;;;;;;;2.08;0.52;;;;;;;10.44;74.29;99489.94;10442187;28;20037;-64
2024/04/02 05:50:43;;;;;;;1.92;0.70;;;;;;;10.49;73.97;99493.69;10449824;28;20515;-66
2024/04/02 05:55:43;;;;;;;0.82;0.40;;;;;;;10.57;74.09;99479.28;10445468;28;20044;-63
2024/04/02 06:00:44;;;;;;;1.38;0.90;;;;;;;10.58;74.08;99491.69;10440247;28;20118;-63
2024/04/02 06:05:44;;;;;;;2.67;0.65;;;;;;;10.67;73.74;99501.25;10441376;28;20071;-67
2024/04/02 06:10:44;;;;;;;2.25;0.60;;;;;;;10.79;73.86;99504.22;10441672;28;20123;-67
2024/04/02 06:15:45;;;;;;;1.70;0.88;;;;;;;10.83;73.45;99507.34;10445296;28;20036;-67
2024/04/02 06:20:46;;;;;;;0.60;0.40;;;;;;;10.86;73.75;99515.84;10429840;23;20447;-83
2024/04/02 06:25:49;;;;;;;1.30;0.45;;;;;;;11.01;72.79;99517.56;10414740;28;20045;-84
2024/04/02 06:30:51;;;;;;;0.95;0.50;;;;;;;11.14;72.89;99519.47;10392550;28;20037;-82
2024/04/02 06:35:52;;;;;;;1.70;0.93;;;;;;;11.22;72.92;99533.59;10398019;28;20459;-81
2024/04/02 06:40:52;;;;;;;1.55;0.52;;;;;;;11.26;72.43;99534.03;10414728;28;20040;-81
2024/04/02 06:45:59;;;;;;;1.65;1.08;;;;;;;11.25;72.49;99540.44;10422972;28;20041;-80
2024/04/02 06:51:13;;;;;;;2.80;0.93;;;;;;;11.26;72.55;99544.81;10411778;28;20041;-85
2024/04/02 06:56:14;;;;;;;1.35;1.10;;;;;;;11.26;72.45;99553.69;10428007;28;20404;-85
2024/04/02 07:01:15;;;;;;;5.85;1.00;;;;;;;11.26;72.60;99561.75;10423659;28;20056;-87
2024/04/02 07:06:16;;;;;;;2.67;0.98;;;;;;;11.32;72.56;99558.28;10402730;28;20074;-87
2024/04/02 07:11:16;;;;;;;1.85;0.98;;;;;;;11.42;72.16;99567.84;10420699;28;20493;-85
2024/04/02 07:16:17;;;;;;;2.97;0.95;;;;;;;11.65;71.79;99565.66;10403065;28;20049;-87
2024/04/02 07:21:18;;;;;;;2.28;0.60;;;;;;;11.76;72.03;99566.09;10417107;28;20476;-85
2024/04/02 07:26:19;;;;;;;1.98;0.52;;;;;;;11.89;71.48;99574.25;10408404;28;20419;-86
2024/04/02 07:31:24;;;;;;;2.30;0.80;;;;;;;12.03;70.99;99577.78;10432904;28;20080;-79
2024/04/02 07:36:24;;;;;;;1.92;0.52;;;;;;;12.12;70.97;99591.88;10438948;28;20140;-80
2024/04/02 07:41:25;;;;;;;1.25;0.40;;;;;;;12.08;71.16;99586.91;10422640;28;20072;-79
2024/04/02 07:46:26;;;;;;;1.48;0.40;;;;;;;12.22;70.44;99593.16;10494512;28;20036;-79
2024/04/02 07:51:27;;;;;;;0.55;0.40;;;;;;;12.11;70.57;99588.38;10485198;28;20037;-79
2024/04/02 07:56:27;;;;;;;2.30;0.40;;;;;;;12.26;70.34;99604.31;10467408;28;20041;-83
2024/04/02 08:01:28;;;;;;;1.73;0.50;;;;;;;12.59;70.26;99611.63;10421445;28;20521;-84
2024/04/02 08:06:29;;;;;;;5.65;0.50;;;;;;;12.55;70.21;99611.19;10492742;28;20089;-79
2024/04/02 08:11:30;;;;;;;3.20;0.40;;;;;;;12.75;69.54;99616.59;10466674;28;20479;-86
2024/04/02 08:16:32;;;;;;;1.95;0.20;;;;;;;12.92;69.24;99611.59;10450414;28;20044;-85
2024/04/02 08:21:33;;;;;;;4.63;0.40;;;;;;;12.97;69.21;99616.34;10432341;28;20084;-84
2024/04/02 08:26:33;;;;;;;3.45;0.65;;;;;;;13.22;68.66;99617.34;10406136;28;20123;-83
2024/04/02 08:31:34;;;;;;;2.22;0.63;;;;;;;13.44;68.23;99622.50;10423113;28;20057;-82
2024/04/02 08:36:35;;;;;;;1.92;0.38;;;;;;;13.42;68.08;99624.59;10405144;28;20542;-82
2024/04/02 08:41:40;;;;;;;3.08;0.52;;;;;;;13.37;67.51;99627.09;10424697;28;20507;-82
2024/04/02 08:46:42;;;;;;;3.60;0.45;;;;;;;13.41;67.17;99622.94;10422526;28;20128;-83
2024/04/02 08:51:42;;;;;;;4.47;0.40;;;;;;;13.48;67.01;99635.34;10422700;28;20424;-82
2024/04/02 08:56:43;;;;;;;4.88;0.30;;;;;;;13.42;66.85;99638.09;10423662;28;20053;-82
2024/04/02 09:01:45;;;;;;;3.95;0.30;;;;;;;13.39;66.28;99639.34;10418487;28;20139;-82
2024/04/02 09:06:48;;;;;;;6.25;0.35;;;;;;;13.41;65.59;99655.34;10409779;28;20040;-82
2024/04/02 09:11:52;;;;;;;1.88;0.30;;;;;;;13.37;65.45;99654.94;10450947;28;20069;-79
2024/04/02 09:16:53;;;;;;;2.50;0.28;;;;;;;13.33;64.74;99660.94;10475420;28;20049;-79
2024/04/02 09:21:54;;;;;;;4.10;0.30;;;;;;;13.50;64.39;99659.44;10466883;28;20069;-79
2024/04/02 09:26:54;;;;;;;4.82;0.68;;;;;;;13.79;63.80;99666.22;10429401;28;20068;-82
2024/04/02 09:31:58;;;;;;;1.25;0.13;;;;;;;14.04;62.77;99669.03;10416480;28;20048;-85
2024/04/02 09:37:31;;;;;;;4.97;0.50;;;;;;;14.21;62.60;99663.94;10442735;28;20087;-84
2024/04/02 09:42:33;;;;;;;2.80;0.45;;;;;;;14.32;62.15;99670.53;10428758;28;20078;-83
2024/04/02 09:47:35;;;;;;;5.20;0.43;;;;;;;14.53;61.29;99672.03;10446323;28;20112;-83
2024/04/02 09:52:37;;;;;;;4.47;0.52;;;;;;;14.75;60.32;99672.56;10432268;28;20041;-83
2024/04/02 09:57:39;;;;;;;5.47;0.30;;;;;;;14.94;59.27;99672.59;10420588;28;20034;-83
2024/04/02 10:02:40;;;;;;;3.75;0.52;;;;;;;15.23;58.71;99658.38;10431250;28;20077;-84
2024/04/02 10:07:41;;;;;;;4.35;0.60;;;;;;;15.29;58.23;99670.19;10479191;28;20042;-80
2024/04/02 10:12:42;;;;;;;1.42;0.68;;;;;;;15.76;56.70;99659.72;10474638;28;20041;-80
2024/04/02 10:17:43;;;;;;;3.88;0.52;;;;;;;15.99;55.57;99663.59;10481529;28;20235;-86
2024/04/02 10:22:44;;;;;;;5.05;0.40;;;;;;;18.42;49.74;99656.16;10418955;28;20136;-86
2024/04/02 10:27:47;;;;;;;3.83;0.38;;;;;;;17.75;51.77;99663.03;10414715;28;20112;-86
2024/04/02 10:32:49;;;;;;;2.90;0.98;;;;;;;17.00;52.52;99667.34;10414542;28;20076;-86
2024/04/02 10:37:57;;;;;;;2.55;0.20;;;;;;;16.46;52.64;99655.63;10428150;28;20059;-86
2024/04/02 10:42:58;;;;;;;4.22;0.40;;;;;;;15.97;52.94;99661.09;10427616;28;20056;-86
2024/04/02 10:47:58;;;;;;;3.70;0.20;;;;;;;16.02;52.44;99665.84;10417340;28;20037;-86
2024/04/02 10:52:59;;;;;;;1.90;0.10;;;;;;;15.93;51.72;99653.66;10417945;28;20049;-86
2024/04/02 10:58:00;;;;;;;0.50;0.10;;;;;;;15.66;52.93;99652.09;10405815;28;20044;-88
2024/04/02 11:03:01;;;;;;;3.38;0.20;;;;;;;16.15;52.32;99645.84;10407545;28;20045;-86
2024/04/02 11:08:02;;;;;;;1.10;0.20;;;;;;;16.44;51.12;99660.47;10412912;28;20541;-88
2024/04/02 11:13:03;;;;;;;1.13;0.10;;;;;;;15.50;53.88;99689.78;10386160;28;20045;-88
2024/04/02 11:18:04;;;;;;;4.80;0.32;;;;;;;14.45;57.42;99688.53;10408276;28;20456;-87
2024/04/02 11:28:28;;;;;;;1.00;0.25;;;;;;;14.14;58.71;99710.94;10422547;28;20731;-87
2024/04/02 11:33:29;;;;;;;0.80;0.20;;;;;;;14.11;58.97;99706.00;10422474;28;20137;-86
2024/04/02 11:38:29;;;;;;;0.68;0.10;;;;;;;14.60;58.09;99693.69;10417186;28;20136;-87
2024/04/02 11:43:30;;;;;;;2.35;0.20;;;;;;;21.52;43.80;99644.00;10413343;28;20049;-87
2024/04/02 11:48:31;;;;;;;0.98;0.10;;;;;;;23.00;40.63;99667.34;10434784;28;20048;-87
2024/04/02 11:53:31;;;;;;;1.70;0.20;;;;;;;19.56;47.52;99682.22;10430731;28;20123;-86
2024/04/02 12:03:52;;;;;;;1.60;0.17;;;;;;;22.12;41.52;99686.41;10433278;28;20048;-87
2024/04/02 12:08:58;;;;;;;2.75;0.20;;;;;;;22.76;40.39;99695.31;10422706;28;20045;-87
2024/04/02 12:13:59;;;;;;;3.22;0.10;;;;;;;19.95;44.76;99712.22;10411672;28;20045;-87
2024/04/02 12:19:00;;;;;;;3.00;0.10;;;;;;;18.81;46.73;99727.94;10433097;28;20045;-87
2024/04/02 12:24:00;;;;;;;2.53;0.82;;;;;;;18.37;47.63;99724.94;10419134;28;20133;-85
2024/04/02 12:29:01;;;;;;;1.17;0.10;;;;;;;20.29;44.65;99706.63;10427612;28;20120;-87
2024/04/02 12:34:02;;;;;;;1.45;0.10;;;;;;;20.28;44.39;99696.78;10412784;28;20149;-85
2024/04/02 12:39:06;;;;;;;0.98;0.15;;;;;;;18.85;46.58;99719.28;10446443;28;20041;-80
2024/04/02 12:44:08;;;;;;;1.02;0.00;;;;;;;17.22;49.64;99721.91;10456666;28;20049;-81
2024/04/02 12:49:10;;;;;;;2.45;0.25;;;;;;;17.56;49.00;99716.69;10486112;28;20112;-80
2024/04/02 12:54:11;;;;;;;2.25;0.10;;;;;;;19.57;44.59;99710.34;10461317;28;20063;-79
2024/04/02 12:59:12;;;;;;;1.55;0.10;;;;;;;21.97;40.60;99687.16;10466978;28;20044;-80
2024/04/02 13:04:12;;;;;;;1.05;0.10;;;;;;;21.95;40.37;99688.50;10465598;28;20053;-81
2024/04/02 13:09:13;;;;;;;1.55;0.10;;;;;;;19.60;43.83;99698.91;10451756;28;20033;-79
2024/04/02 13:14:14;;;;;;;0.70;0.10;;;;;;;19.78;42.88;99706.00;10468081;28;20363;-79
2024/04/02 13:19:15;;;;;;;1.92;0.20;;;;;;;20.48;41.30;99693.44;10464722;28;20056;-79
2024/04/02 13:24:15;;;;;;;3.58;0.22;;;;;;;21.17;39.96;99670.03;10452581;28;20041;-79
2024/04/02 13:29:17;;;;;;;2.78;0.20;;;;;;;24.09;33.93;99655.81;10464998;28;20539;-79
2024/04/02 13:34:18;;;;;;;1.30;0.13;;;;;;;24.69;32.53;99666.75;10446047;28;20041;-80
2024/04/02 13:39:19;;;;;;;2.30;0.20;;;;;;;24.25;32.98;99673.03;10445166;28;20052;-79
2024/04/02 13:44:19;;;;;;;1.27;0.15;;;;;;;23.65;33.69;99679.31;10462057;28;20652;-79
2024/04/02 13:49:20;;;;;;;4.28;0.30;;;;;;;23.00;34.85;99675.56;10467655;28;20044;-86
2024/04/02 13:54:20;;;;;;;3.05;0.25;;;;;;;21.92;36.14;99676.19;10474007;28;20059;-86
2024/04/02 13:59:21;;;;;;;1.85;0.20;;;;;;;20.47;38.27;99690.97;10468563;28;20052;-86
2024/04/02 14:04:22;;;;;;;2.58;0.20;;;;;;;19.28;39.65;99702.28;10460671;28;20041;-86
2024/04/02 14:09:22;;;;;;;2.97;0.75;;;;;;;18.49;40.18;99705.00;10450305;28;20100;-86
2024/04/02 14:14:23;;;;;;;3.22;0.20;;;;;;;17.82;41.01;99682.72;10446399;28;20041;-86
2024/04/02 14:19:24;;;;;;;3.90;0.60;;;;;;;17.58;41.21;99684.66;10469263;28;20041;-85
2024/04/02 14:24:24;;;;;;;3.28;0.30;;;;;;;17.51;41.49;99683.97;10478928;28;20055;-86
2024/04/02 14:29:25;;;;;;;2.65;0.77;;;;;;;17.60;41.30;99687.97;10447556;28;20149;-86
2024/04/02 14:34:26;;;;;;;3.97;0.40;;;;;;;18.47;39.65;99669.03;10466660;28;20101;-85
2024/04/02 14:39:26;;;;;;;4.57;0.45;;;;;;;20.41;37.16;99665.50;10446216;28;20095;-86
2024/04/02 14:44:27;;;;;;;3.42;0.30;;;;;;;20.43;37.38;99671.53;10447743;28;20206;-87
2024/04/02 14:49:28;;;;;;;2.95;0.30;;;;;;;20.22;38.01;99673.22;10454589;28;20017;-86
2024/04/02 14:54:29;;;;;;;3.63;0.30;;;;;;;19.62;38.21;99675.75;10470971;28;20045;-85
2024/04/02 14:59:29;;;;;;;2.92;0.30;;;;;;;18.85;38.38;99675.72;10442809;28;20106;-83
2024/04/02 15:04:32;;;;;;;2.00;0.20;;;;;;;18.28;38.61;99673.84;10420470;28;20512;-83
2024/04/02 15:09:33;;;;;;;2.53;0.32;;;;;;;18.25;38.93;99664.28;10403874;28;20037;-82
2024/04/02 15:14:34;;;;;;;5.90;0.40;;;;;;;18.13;39.36;99667.06;10411088;28;20053;-82
2024/04/02 15:19:37;;;;;;;8.00;1.70;;;;;;;18.28;39.41;99660.25;10412923;28;20052;-82
2024/04/02 15:24:38;;;;;;;4.18;0.90;;;;;;;18.90;38.90;99656.72;10420278;28;20091;-81
2024/04/02 15:29:40;;;;;;;3.33;0.20;;;;;;;19.34;38.44;99641.31;10419159;28;20148;-82
2024/04/02 15:34:42;;;;;;;3.53;0.20;;;;;;;20.15;36.81;99653.53;10425164;28;20049;-81
2024/04/02 15:39:43;;;;;;;3.92;0.45;;;;;;;19.79;36.59;99637.56;10400541;28;20561;-82
2024/04/02 15:44:45;;;;;;;0.90;0.10;;;;;;;19.47;36.47;99625.66;10419135;28;20496;-82
2024/04/02 15:49:46;;;;;;;2.35;0.10;;;;;;;19.02;36.67;99628.31;10422957;28;20069;-83
2024/04/02 15:54:50;;;;;;;5.72;0.30;;;;;;;19.22;36.33;99630.50;10401610;28;20052;-82
2024/04/02 15:59:54;;;;;;;3.40;0.30;;;;;;;19.50;36.48;99625.16;10419339;28;20045;-82
2024/04/02 16:04:54;;;;;;;1.73;0.20;;;;;;;19.08;36.59;99634.69;10421252;28;20045;-83
2024/04/02 16:09:56;;;;;;;3.40;0.40;;;;;;;18.09;37.09;99648.72;10411555;28;20037;-80
2024/04/02 16:14:57;;;;;;;1.50;0.20;;;;;;;17.73;37.58;99650.72;10450401;28;20045;-79
2024/04/02 16:19:59;;;;;;;2.67;0.40;;;;;;;17.39;38.11;99645.09;10433906;28;20041;-79
2024/04/02 16:24:59;;;;;;;2.83;0.38;;;;;;;17.06;38.77;99643.81;10442885;28;20050;-79
2024/04/02 16:30:00;;;;;;;2.95;0.20;;;;;;;17.01;39.20;99638.28;10452290;28;20033;-79
2024/04/02 16:35:01;;;;;;;5.28;0.20;;;;;;;17.06;39.34;99643.81;10448749;28;20104;-79
2024/04/02 16:40:04;;;;;;;4.45;0.70;;;;;;;17.27;39.69;99658.69;10430130;28;20083;-82
2024/04/02 16:45:05;;;;;;;3.05;0.20;;;;;;;17.48;39.86;99651.84;10423743;28;20038;-82
2024/04/02 16:50:07;;;;;;;1.92;0.73;;;;;;;17.21;40.08;99656.94;10404275;28;20057;-84
2024/04/02 16:55:09;;;;;;;3.40;0.38;;;;;;;17.12;40.33;99655.63;10405694;28;20561;-82
2024/04/02 17:00:10;;;;;;;3.45;0.82;;;;;;;16.90;40.83;99652.66;10407711;28;20056;-83
2024/04/02 17:05:11;;;;;;;2.88;0.30;;;;;;;16.65;41.89;99650.97;10410622;28;20488;-83
2024/04/02 17:10:11;;;;;;;2.55;0.30;;;;;;;16.50;42.26;99662.25;10423059;28;20045;-83
2024/04/02 17:15:12;;;;;;;5.40;0.35;;;;;;;16.30;42.97;99661.72;10425503;28;20040;-82
2024/04/02 17:20:13;;;;;;;3.22;0.20;;;;;;;16.15;43.64;99662.13;10434363;28;20053;-85
2024/04/02 17:25:13;;;;;;;3.60;0.40;;;;;;;16.04;43.91;99667.28;10478500;28;20053;-84
2024/04/02 17:30:14;;;;;;;4.40;0.73;;;;;;;15.89;44.16;99666.03;10446525;28;20068;-84
2024/04/02 17:35:15;;;;;;;7.45;0.40;;;;;;;15.78;44.10;99663.03;10463337;28;20121;-86
2024/04/02 17:40:15;;;;;;;2.47;0.30;;;;;;;15.62;43.92;99667.13;10478115;28;20289;-84
2024/04/02 17:45:16;;;;;;;3.92;0.30;;;;;;;15.67;43.86;99672.69;10477293;28;20075;-84
2024/04/02 17:50:16;;;;;;;1.80;0.32;;;;;;;15.60;44.05;99679.25;10439884;28;20053;-84
2024/04/02 17:55:17;;;;;;;4.90;0.60;;;;;;;15.46;43.96;99673.13;10425362;28;20049;-85
2024/04/02 18:00:18;;;;;;;3.20;0.40;;;;;;;15.47;44.09;99682.94;10421166;28;20045;-85
2024/04/02 18:05:18;;;;;;;3.55;0.30;;;;;;;15.33;44.14;99681.41;10426752;28;20127;-85
2024/04/02 18:10:19;;;;;;;5.60;0.50;;;;;;;15.29;44.54;99682.91;10410734;28;20045;-85
2024/04/02 18:15:21;;;;;;;7.50;0.40;;;;;;;15.34;44.37;99688.47;10428252;28;20492;-84
2024/04/02 18:20:21;;;;;;;2.03;0.30;;;;;;;15.27;44.99;99689.38;10405635;28;20053;-84
2024/04/02 18:25:22;;;;;;;4.65;0.50;;;;;;;15.21;45.46;99694.88;10421153;28;20603;-85
2024/04/02 18:30:23;;;;;;;4.72;0.30;;;;;;;15.13;46.42;99701.38;10425028;28;20124;-85
2024/04/02 18:35:23;;;;;;;3.38;0.32;;;;;;;15.04;46.39;99705.41;10429433;28;20041;-84
2024/04/02 18:40:24;;;;;;;3.78;0.40;;;;;;;15.03;46.73;99711.88;10425874;28;20076;-83
2024/04/02 18:45:31;;;;;;;5.72;0.60;;;;;;;15.02;46.76;99716.44;10399785;28;20047;-83
2024/04/02 18:50:32;;;;;;;;;;;;;;;14.96;46.86;99719.22;10417564;28;20056;-84
2024/04/02 18:55:33;;;;;;;4.60;0.70;;;;;;;14.78;47.10;99714.56;10408288;28;20016;-83
2024/04/02 19:00:35;;;;;;;3.95;0.43;;;;;;;14.58;47.76;99715.53;10418061;28;20037;-84
2024/04/02 19:05:35;;;;;;;4.15;0.93;;;;;;;14.45;47.97;99716.44;10420796;28;20060;-84
2024/04/02 19:10:39;;;;;;;6.40;0.40;;;;;;;14.37;48.17;99713.94;10399884;28;20049;-83
2024/04/02 19:15:40;;;;;;;3.55;0.40;;;;;;;14.31;48.20;99732.94;10423901;28;20046;-83
2024/04/02 19:20:42;;;;;;;6.40;0.30;;;;;;;14.27;48.42;99733.34;10422684;28;20136;-84
2024/04/02 19:25:51;;;;;;;9.73;0.50;;;;;;;14.35;48.02;99726.03;10410296;28;20045;-84
2024/04/02 19:30:52;;;;;;;4.40;0.55;;;;;;;14.33;47.97;99739.78;10415908;28;20033;-84
2024/04/02 19:35:57;;;;;;;5.90;1.00;;;;;;;14.21;48.34;99736.09;10389248;28;20436;-83
2024/04/02 19:41:06;;;;;;;2.67;0.40;;;;;;;14.14;48.96;99721.75;10429767;28;20053;-83
2024/04/02 19:46:08;;;;;;;3.42;0.68;;;;;;;14.07;48.99;99717.22;10425189;28;20166;-84
2024/04/02 19:51:09;;;;;;;7.47;0.60;;;;;;;14.04;49.03;99727.63;10422644;28;20048;-83
2024/04/02 19:56:11;;;;;;;3.22;0.52;;;;;;;13.99;48.85;99728.28;10422419;28;20068;-84
2024/04/02 20:01:16;;;;;;;5.50;0.30;;;;;;;14.02;48.71;99733.28;10432310;28;20052;-83
2024/04/02 20:06:17;;;;;;;1.52;0.30;;;;;;;14.02;48.78;99733.28;10433643;28;20049;-83
2024/04/02 20:11:18;;;;;;;3.42;0.28;;;;;;;13.99;49.06;99736.38;10428513;28;20110;-84
2024/04/02 20:16:18;;;;;;;6.85;0.77;;;;;;;14.00;48.84;99732.66;10413837;28;20123;-84
2024/04/02 20:21:21;;;;;;;2.58;0.47;;;;;;;13.93;49.15;99737.25;10408883;28;20053;-83
2024/04/02 20:26:23;;;;;;;3.25;0.40;;;;;;;13.91;49.16;99744.72;10410256;28;20040;-83
2024/04/02 20:31:24;;;;;;;5.80;0.60;;;;;;;13.63;50.00;99742.31;10431319;28;20037;-83
2024/04/02 20:36:26;;;;;;;4.70;0.68;;;;;;;13.37;51.22;99733.22;10423750;28;20048;-84
2024/04/02 20:41:26;;;;;;;5.60;0.77;;;;;;;13.27;51.25;99735.50;10429055;28;20049;-84
2024/04/02 20:46:27;;;;;;;2.78;0.30;;;;;;;13.17;51.51;99746.69;10431515;28;20532;-84
2024/04/02 20:51:30;;;;;;;3.35;0.28;;;;;;;13.13;51.86;99748.16;10430088;28;20053;-79
2024/04/02 20:56:31;;;;;;;4.80;0.30;;;;;;;13.05;52.30;99756.44;10434374;28;20043;-78
2024/04/02 21:01:31;;;;;;;2.40;0.38;;;;;;;13.02;52.59;99762.25;10406405;28;20037;-81
2024/04/02 21:06:32;;;;;;;5.18;0.40;;;;;;;12.92;52.97;99773.47;10432754;28;20044;-78
2024/04/02 21:11:33;;;;;;;1.25;0.20;;;;;;;12.91;53.36;99771.78;10409973;28;20056;-79
2024/04/02 21:16:34;;;;;;;2.92;0.30;;;;;;;12.83;53.86;99778.19;10431157;28;20041;-78
2024/04/02 21:21:37;;;;;;;1.48;0.20;;;;;;;12.82;53.89;99775.72;10426363;28;20409;-79
2024/04/02 21:26:38;;;;;;;2.30;0.50;;;;;;;12.70;54.68;99781.72;10416052;28;20128;-78
2024/04/02 21:31:40;;;;;;;0.82;0.20;;;;;;;12.70;54.86;99772.81;10429215;28;20048;-79
2024/04/02 21:36:41;;;;;;;1.40;0.20;;;;;;;12.61;55.13;99769.44;10411236;28;20408;-78
2024/04/02 21:41:42;;;;;;;2.60;0.13;;;;;;;12.56;55.16;99774.63;10410013;28;20045;-78
2024/04/02 21:46:42;;;;;;;4.03;0.32;;;;;;;12.55;55.65;99774.81;10404218;28;20169;-84
2024/04/02 21:51:43;;;;;;;1.73;0.55;;;;;;;12.47;55.52;99767.75;10422832;28;20938;-84
2024/04/02 21:56:44;;;;;;;2.28;0.20;;;;;;;12.40;56.12;99780.38;10402401;28;20046;-84
2024/04/02 22:01:44;;;;;;;1.67;1.20;;;;;;;12.39;55.95;99771.47;10406726;28;20044;-79
2024/04/02 22:06:46;;;;;;;1.65;0.22;;;;;;;12.35;56.44;99777.47;10406675;28;20038;-78
2024/04/02 22:11:46;;;;;;;1.23;0.30;;;;;;;12.32;56.50;99767.06;10424569;28;20054;-78
2024/04/02 22:16:47;;;;;;;1.55;0.30;;;;;;;12.27;56.70;99767.69;10420404;28;20488;-78
2024/04/02 22:21:47;;;;;;;1.92;0.20;;;;;;;12.28;56.80;99778.28;10427305;28;20048;-78
2024/04/02 22:26:48;;;;;;;1.83;0.20;;;;;;;12.38;56.69;99774.34;10409303;28;20072;-78
2024/04/02 22:31:49;;;;;;;3.72;0.40;;;;;;;12.42;56.26;99762.13;10414007;28;20040;-78
2024/04/02 22:36:50;;;;;;;2.92;0.28;;;;;;;12.48;56.72;99767.56;10423443;28;20382;-78
2024/04/02 22:41:50;;;;;;;4.13;0.30;;;;;;;12.53;56.90;99764.25;10419564;28;20514;-78
2024/04/02 22:46:51;;;;;;;3.25;0.30;;;;;;;12.57;56.93;99757.41;10424619;28;20870;-78
2024/04/02 22:51:51;;;;;;;2.80;0.30;;;;;;;12.65;56.77;99751.00;10405873;28;20470;-78
2024/04/02 22:56:52;;;;;;;4.43;0.20;;;;;;;12.70;57.51;99753.94;10411257;28;20052;-78
2024/04/02 23:01:53;;;;;;;2.15;0.20;;;;;;;12.75;57.62;99751.44;10405217;28;20554;-78
2024/04/02 23:06:53;;;;;;;4.50;0.30;;;;;;;12.59;58.49;99743.72;10408163;28;20685;-78
2024/04/02 23:11:54;;;;;;;1.77;0.28;;;;;;;12.59;58.83;99743.72;10412035;28;20068;-84
2024/04/02 23:16:55;;;;;;;7.00;0.65;;;;;;;12.66;58.58;99749.97;10417965;28;20056;-84
2024/04/02 23:21:56;;;;;;;4.13;0.30;;;;;;;12.66;58.95;99750.81;10419282;28;20037;-84
2024/04/02 23:26:56;;;;;;;4.00;0.50;;;;;;;12.67;59.16;99740.84;10398967;28;20052;-84
2024/04/02 23:31:57;;;;;;;8.27;0.35;;;;;;;12.79;58.89;99736.50;10422200;28;20514;-84
2024/04/02 23:36:58;;;;;;;2.53;0.20;;;;;;;12.86;58.95;99733.81;10413979;28;20045;-84